sensor_id;sensor_type;location;lat;lon;timestamp;pressure;altitude;pressure_sealevel;temperature;humidity
70690;BME280;58267;51.156;17.044;2023-03-03T00:02:07;100774.60;;;4.19;44.52
70690;BME280;58267;51.156;17.044;2023-03-03T00:04:32;100770.83;;;4.13;44.08
70690;BME280;58267;51.156;17.044;2023-03-03T00:06:59;100774.53;;;4.25;44.26
70690;BME280;58267;51.156;17.044;2023-03-03T00:09:25;100779.25;;;2.60;47.24
70690;BME280;58267;51.156;17.044;2023-03-03T00:11:55;100777.04;;;2.53;47.78
70690;BME280;58267;51.156;17.044;2023-03-03T00:14:21;100780.51;;;2.73;47.92
70690;BME280;58267;51.156;17.044;2023-03-03T00:16:41;100786.54;;;2.80;48.15
70690;BME280;58267;51.156;17.044;2023-03-03T00:19:11;100796.15;;;1.83;50.14
70690;BME280;58267;51.156;17.044;2023-03-03T00:21:34;100796.50;;;1.60;51.08
70690;BME280;58267;51.156;17.044;2023-03-03T00:26:25;100794.14;;;1.20;51.65
70690;BME280;58267;51.156;17.044;2023-03-03T00:28:49;100793.96;;;1.73;50.74
70690;BME280;58267;51.156;17.044;2023-03-03T00:31:16;100790.97;;;2.28;49.43
70690;BME280;58267;51.156;17.044;2023-03-03T00:33:44;100785.82;;;2.71;48.03
70690;BME280;58267;51.156;17.044;2023-03-03T00:38:29;100778.79;;;2.97;47.69
70690;BME280;58267;51.156;17.044;2023-03-03T00:40:54;100778.12;;;3.36;47.01
70690;BME280;58267;51.156;17.044;2023-03-03T00:43:21;100777.00;;;2.80;47.38
70690;BME280;58267;51.156;17.044;2023-03-03T00:45:46;100776.01;;;1.24;51.20
70690;BME280;58267;51.156;17.044;2023-03-03T00:48:20;100775.43;;;2.16;49.14
70690;BME280;58267;51.156;17.044;2023-03-03T00:50:36;100771.65;;;2.27;48.90
70690;BME280;58267;51.156;17.044;2023-03-03T00:53:05;100767.47;;;2.25;48.97
70690;BME280;58267;51.156;17.044;2023-03-03T00:55:27;100768.01;;;2.87;47.55
70690;BME280;58267;51.156;17.044;2023-03-03T00:57:52;100770.99;;;2.32;48.85
70690;BME280;58267;51.156;17.044;2023-03-03T01:00:19;100759.43;;;2.82;47.75
70690;BME280;58267;51.156;17.044;2023-03-03T01:02:43;100762.54;;;2.75;47.57
70690;BME280;58267;51.156;17.044;2023-03-03T01:05:09;100760.62;;;2.43;47.83
70690;BME280;58267;51.156;17.044;2023-03-03T01:07:34;100757.86;;;3.49;46.38
70690;BME280;58267;51.156;17.044;2023-03-03T01:09:59;100760.57;;;2.49;48.07
70690;BME280;58267;51.156;17.044;2023-03-03T01:12:24;100755.62;;;2.84;47.01
70690;BME280;58267;51.156;17.044;2023-03-03T01:14:49;100750.86;;;3.38;46.28
70690;BME280;58267;51.156;17.044;2023-03-03T01:17:15;100745.13;;;3.35;45.91
70690;BME280;58267;51.156;17.044;2023-03-03T01:19:40;100736.91;;;3.95;45.27
70690;BME280;58267;51.156;17.044;2023-03-03T01:22:06;100737.06;;;4.01;44.65
70690;BME280;58267;51.156;17.044;2023-03-03T01:24:31;100731.53;;;3.58;44.99
70690;BME280;58267;51.156;17.044;2023-03-03T01:26:57;100731.21;;;3.54;44.62
70690;BME280;58267;51.156;17.044;2023-03-03T01:29:22;100726.68;;;4.14;44.03
70690;BME280;58267;51.156;17.044;2023-03-03T01:31:48;100720.33;;;3.28;45.82
70690;BME280;58267;51.156;17.044;2023-03-03T01:34:14;100718.09;;;4.05;44.91
70690;BME280;58267;51.156;17.044;2023-03-03T01:36:39;100717.00;;;3.99;44.56
70690;BME280;58267;51.156;17.044;2023-03-03T01:39:05;100716.54;;;3.79;44.51
70690;BME280;58267;51.156;17.044;2023-03-03T01:41:32;100711.12;;;3.77;44.84
70690;BME280;58267;51.156;17.044;2023-03-03T01:43:56;100709.55;;;3.47;45.53
70690;BME280;58267;51.156;17.044;2023-03-03T01:46:31;100712.16;;;2.97;45.96
70690;BME280;58267;51.156;17.044;2023-03-03T01:48:48;100711.55;;;3.82;44.92
70690;BME280;58267;51.156;17.044;2023-03-03T01:51:18;100704.71;;;4.10;44.15
70690;BME280;58267;51.156;17.044;2023-03-03T01:53:42;100704.15;;;4.05;44.45
70690;BME280;58267;51.156;17.044;2023-03-03T01:56:06;100702.57;;;3.72;44.90
70690;BME280;58267;51.156;17.044;2023-03-03T01:58:34;100702.24;;;3.62;44.65
70690;BME280;58267;51.156;17.044;2023-03-03T02:00:59;100699.36;;;3.54;45.05
70690;BME280;58267;51.156;17.044;2023-03-03T02:03:22;100698.91;;;3.62;44.70
70690;BME280;58267;51.156;17.044;2023-03-03T02:05:47;100700.55;;;3.55;44.47
70690;BME280;58267;51.156;17.044;2023-03-03T02:08:15;100704.34;;;3.57;44.31
70690;BME280;58267;51.156;17.044;2023-03-03T02:10:38;100699.41;;;4.05;43.88
70690;BME280;58267;51.156;17.044;2023-03-03T02:13:02;100696.21;;;3.82;44.58
70690;BME280;58267;51.156;17.044;2023-03-03T02:15:31;100688.21;;;3.53;44.85
70690;BME280;58267;51.156;17.044;2023-03-03T02:17:55;100683.64;;;3.09;45.69
70690;BME280;58267;51.156;17.044;2023-03-03T02:20:28;100677.43;;;3.08;45.52
70690;BME280;58267;51.156;17.044;2023-03-03T02:22:52;100684.28;;;3.44;44.95
70690;BME280;58267;51.156;17.044;2023-03-03T02:25:19;100689.27;;;3.27;45.23
70690;BME280;58267;51.156;17.044;2023-03-03T02:27:39;100697.03;;;3.81;44.11
70690;BME280;58267;51.156;17.044;2023-03-03T02:30:12;100698.45;;;3.53;44.71
70690;BME280;58267;51.156;17.044;2023-03-03T02:32:29;100696.40;;;3.48;45.66
70690;BME280;58267;51.156;17.044;2023-03-03T02:34:55;100695.57;;;3.38;45.11
70690;BME280;58267;51.156;17.044;2023-03-03T02:37:20;100693.24;;;3.11;45.15
70690;BME280;58267;51.156;17.044;2023-03-03T02:39:45;100692.88;;;3.72;44.60
70690;BME280;58267;51.156;17.044;2023-03-03T02:42:15;100691.00;;;3.20;45.12
70690;BME280;58267;51.156;17.044;2023-03-03T02:44:35;100697.66;;;3.58;44.99
70690;BME280;58267;51.156;17.044;2023-03-03T02:47:01;100709.25;;;1.99;47.88
70690;BME280;58267;51.156;17.044;2023-03-03T02:49:28;100707.87;;;2.57;46.48
70690;BME280;58267;51.156;17.044;2023-03-03T02:51:53;100717.26;;;1.87;48.47
70690;BME280;58267;51.156;17.044;2023-03-03T02:54:20;100721.62;;;2.06;48.43
70690;BME280;58267;51.156;17.044;2023-03-03T02:56:44;100730.15;;;2.10;48.95
70690;BME280;58267;51.156;17.044;2023-03-03T02:59:10;100732.18;;;2.25;47.75
70690;BME280;58267;51.156;17.044;2023-03-03T03:01:35;100734.86;;;2.70;47.56
70690;BME280;58267;51.156;17.044;2023-03-03T03:04:00;100738.43;;;1.82;49.01
70690;BME280;58267;51.156;17.044;2023-03-03T03:06:25;100737.31;;;1.47;50.27
70690;BME280;58267;51.156;17.044;2023-03-03T03:08:51;100730.46;;;1.36;50.46
70690;BME280;58267;51.156;17.044;2023-03-03T03:11:16;100730.86;;;1.27;50.60
70690;BME280;58267;51.156;17.044;2023-03-03T03:13:41;100729.17;;;1.40;50.63
70690;BME280;58267;51.156;17.044;2023-03-03T03:16:07;100723.81;;;2.18;49.03
70690;BME280;58267;51.156;17.044;2023-03-03T03:18:32;100724.92;;;2.32;48.30
70690;BME280;58267;51.156;17.044;2023-03-03T03:21:07;100721.16;;;2.41;48.07
70690;BME280;58267;51.156;17.044;2023-03-03T03:23:23;100710.07;;;2.92;47.34
70690;BME280;58267;51.156;17.044;2023-03-03T03:25:49;100705.83;;;2.32;47.35
70690;BME280;58267;51.156;17.044;2023-03-03T03:28:16;100699.53;;;2.38;47.74
70690;BME280;58267;51.156;17.044;2023-03-03T03:30:41;100699.59;;;1.89;48.80
70690;BME280;58267;51.156;17.044;2023-03-03T03:33:06;100693.59;;;2.30;47.93
70690;BME280;58267;51.156;17.044;2023-03-03T03:35:33;100692.26;;;2.22;48.14
70690;BME280;58267;51.156;17.044;2023-03-03T03:37:58;100689.92;;;2.22;48.15
70690;BME280;58267;51.156;17.044;2023-03-03T03:40:24;100681.95;;;2.79;47.26
70690;BME280;58267;51.156;17.044;2023-03-03T03:42:48;100691.90;;;1.99;47.95
70690;BME280;58267;51.156;17.044;2023-03-03T03:45:14;100698.82;;;2.00;48.39
70690;BME280;58267;51.156;17.044;2023-03-03T03:47:39;100707.47;;;1.88;48.65
70690;BME280;58267;51.156;17.044;2023-03-03T03:50:06;100712.14;;;1.02;50.17
70690;BME280;58267;51.156;17.044;2023-03-03T03:52:30;100710.70;;;-0.19;53.00
70690;BME280;58267;51.156;17.044;2023-03-03T03:54:55;100707.57;;;1.47;50.14
70690;BME280;58267;51.156;17.044;2023-03-03T03:57:21;100712.32;;;0.56;51.32
70690;BME280;58267;51.156;17.044;2023-03-03T03:59:49;100714.21;;;1.06;51.24
70690;BME280;58267;51.156;17.044;2023-03-03T04:02:12;100713.50;;;1.53;49.89
70690;BME280;58267;51.156;17.044;2023-03-03T04:04:38;100717.19;;;2.16;48.45
70690;BME280;58267;51.156;17.044;2023-03-03T04:07:03;100722.69;;;2.24;48.07
70690;BME280;58267;51.156;17.044;2023-03-03T04:09:28;100723.21;;;2.55;47.76
70690;BME280;58267;51.156;17.044;2023-03-03T04:11:54;100723.65;;;2.75;46.90
70690;BME280;58267;51.156;17.044;2023-03-03T04:14:20;100726.73;;;2.06;47.82
70690;BME280;58267;51.156;17.044;2023-03-03T04:16:46;100734.16;;;1.25;49.11
70690;BME280;58267;51.156;17.044;2023-03-03T04:19:11;100743.13;;;0.70;51.39
70690;BME280;58267;51.156;17.044;2023-03-03T04:21:36;100740.65;;;1.83;48.76
70690;BME280;58267;51.156;17.044;2023-03-03T04:24:02;100746.98;;;0.76;50.73
70690;BME280;58267;51.156;17.044;2023-03-03T04:26:27;100750.40;;;0.48;51.52
70690;BME280;58267;51.156;17.044;2023-03-03T04:28:52;100743.88;;;0.17;51.93
70690;BME280;58267;51.156;17.044;2023-03-03T04:31:18;100744.00;;;0.35;51.33
70690;BME280;58267;51.156;17.044;2023-03-03T04:33:44;100744.75;;;0.47;51.77
70690;BME280;58267;51.156;17.044;2023-03-03T04:36:09;100755.30;;;0.48;51.28
70690;BME280;58267;51.156;17.044;2023-03-03T04:38:34;100764.15;;;-1.02;54.27
70690;BME280;58267;51.156;17.044;2023-03-03T04:41:00;100758.18;;;-0.46;54.51
70690;BME280;58267;51.156;17.044;2023-03-03T04:43:25;100754.94;;;-0.26;54.88
70690;BME280;58267;51.156;17.044;2023-03-03T04:45:51;100755.34;;;0.82;51.15
70690;BME280;58267;51.156;17.044;2023-03-03T04:48:17;100760.11;;;0.57;51.18
70690;BME280;58267;51.156;17.044;2023-03-03T04:50:42;100758.66;;;0.66;51.35
70690;BME280;58267;51.156;17.044;2023-03-03T04:53:07;100751.50;;;1.32;49.68
70690;BME280;58267;51.156;17.044;2023-03-03T04:55:35;100749.67;;;2.01;48.67
70690;BME280;58267;51.156;17.044;2023-03-03T04:57:58;100752.01;;;-0.20;52.75
70690;BME280;58267;51.156;17.044;2023-03-03T05:00:23;100744.96;;;0.98;50.20
70690;BME280;58267;51.156;17.044;2023-03-03T05:02:49;100741.15;;;0.98;50.51
70690;BME280;58267;51.156;17.044;2023-03-03T05:05:15;100744.38;;;1.06;50.53
70690;BME280;58267;51.156;17.044;2023-03-03T05:07:40;100751.19;;;-0.60;53.77
70690;BME280;58267;51.156;17.044;2023-03-03T05:10:11;100744.46;;;-0.14;53.49
70690;BME280;58267;51.156;17.044;2023-03-03T05:12:31;100732.03;;;1.09;50.60
70690;BME280;58267;51.156;17.044;2023-03-03T05:14:57;100729.78;;;1.35;50.23
70690;BME280;58267;51.156;17.044;2023-03-03T05:17:22;100734.11;;;0.24;52.34
70690;BME280;58267;51.156;17.044;2023-03-03T05:19:48;100736.30;;;0.25;51.74
70690;BME280;58267;51.156;17.044;2023-03-03T05:22:14;100743.18;;;0.90;50.51
70690;BME280;58267;51.156;17.044;2023-03-03T05:24:39;100751.11;;;0.64;51.69
70690;BME280;58267;51.156;17.044;2023-03-03T05:27:05;100746.18;;;1.26;49.92
70690;BME280;58267;51.156;17.044;2023-03-03T05:29:30;100734.32;;;1.37;49.07
70690;BME280;58267;51.156;17.044;2023-03-03T05:31:55;100738.29;;;0.83;49.70
70690;BME280;58267;51.156;17.044;2023-03-03T05:34:21;100738.43;;;0.42;50.84
70690;BME280;58267;51.156;17.044;2023-03-03T05:36:48;100734.43;;;-0.38;52.26
70690;BME280;58267;51.156;17.044;2023-03-03T05:39:13;100727.07;;;0.43;51.08
70690;BME280;58267;51.156;17.044;2023-03-03T05:41:38;100735.35;;;0.37;51.30
70690;BME280;58267;51.156;17.044;2023-03-03T05:44:04;100740.07;;;0.46;50.54
70690;BME280;58267;51.156;17.044;2023-03-03T05:46:30;100737.01;;;1.15;49.75
70690;BME280;58267;51.156;17.044;2023-03-03T05:48:55;100738.79;;;1.11;49.03
70690;BME280;58267;51.156;17.044;2023-03-03T05:51:21;100734.65;;;1.45;48.46
70690;BME280;58267;51.156;17.044;2023-03-03T05:53:46;100743.35;;;2.07;47.29
70690;BME280;58267;51.156;17.044;2023-03-03T05:56:12;100743.44;;;1.52;48.05
70690;BME280;58267;51.156;17.044;2023-03-03T05:58:38;100751.26;;;0.64;49.74
70690;BME280;58267;51.156;17.044;2023-03-03T06:01:04;100752.81;;;0.61;49.71
70690;BME280;58267;51.156;17.044;2023-03-03T06:03:29;100747.14;;;1.11;48.88
70690;BME280;58267;51.156;17.044;2023-03-03T06:05:55;100744.38;;;1.56;48.33
70690;BME280;58267;51.156;17.044;2023-03-03T06:08:20;100747.89;;;1.94;47.48
70690;BME280;58267;51.156;17.044;2023-03-03T06:10:46;100742.81;;;1.04;48.46
70690;BME280;58267;51.156;17.044;2023-03-03T06:13:11;100749.09;;;1.79;47.54
70690;BME280;58267;51.156;17.044;2023-03-03T06:15:36;100744.41;;;1.24;48.65
70690;BME280;58267;51.156;17.044;2023-03-03T06:18:02;100742.92;;;1.39;48.14
70690;BME280;58267;51.156;17.044;2023-03-03T06:20:27;100759.06;;;2.14;47.10
70690;BME280;58267;51.156;17.044;2023-03-03T06:22:52;100768.14;;;2.07;47.13
70690;BME280;58267;51.156;17.044;2023-03-03T06:25:17;100770.61;;;1.51;48.63
70690;BME280;58267;51.156;17.044;2023-03-03T06:27:43;100772.27;;;2.29;47.15
70690;BME280;58267;51.156;17.044;2023-03-03T06:30:10;100778.74;;;2.28;46.93
70690;BME280;58267;51.156;17.044;2023-03-03T06:32:34;100781.13;;;2.08;47.18
70690;BME280;58267;51.156;17.044;2023-03-03T06:35:02;100776.61;;;1.94;47.25
70690;BME280;58267;51.156;17.044;2023-03-03T06:37:27;100773.45;;;2.01;47.45
70690;BME280;58267;51.156;17.044;2023-03-03T06:39:52;100769.36;;;1.82;47.60
70690;BME280;58267;51.156;17.044;2023-03-03T06:42:18;100773.83;;;1.69;48.00
70690;BME280;58267;51.156;17.044;2023-03-03T06:44:43;100771.23;;;2.08;47.10
70690;BME280;58267;51.156;17.044;2023-03-03T06:47:08;100765.65;;;1.85;47.33
70690;BME280;58267;51.156;17.044;2023-03-03T06:49:35;100771.85;;;2.01;47.46
70690;BME280;58267;51.156;17.044;2023-03-03T06:52:05;100778.71;;;1.38;48.79
70690;BME280;58267;51.156;17.044;2023-03-03T06:54:27;100788.02;;;0.62;50.43
70690;BME280;58267;51.156;17.044;2023-03-03T06:56:54;100785.63;;;1.22;49.41
70690;BME280;58267;51.156;17.044;2023-03-03T06:59:18;100783.18;;;1.23;48.37
70690;BME280;58267;51.156;17.044;2023-03-03T07:01:43;100789.43;;;1.10;49.36
70690;BME280;58267;51.156;17.044;2023-03-03T07:04:19;100792.71;;;1.78;47.72
70690;BME280;58267;51.156;17.044;2023-03-03T07:06:32;100798.64;;;1.36;48.26
70690;BME280;58267;51.156;17.044;2023-03-03T07:08:58;100802.21;;;1.60;48.07
70690;BME280;58267;51.156;17.044;2023-03-03T07:11:23;100813.47;;;0.40;50.07
70690;BME280;58267;51.156;17.044;2023-03-03T07:13:50;100814.07;;;1.23;48.78
70690;BME280;58267;51.156;17.044;2023-03-03T07:16:16;100820.94;;;0.34;49.97
70690;BME280;58267;51.156;17.044;2023-03-03T07:18:42;100817.06;;;0.63;49.19
70690;BME280;58267;51.156;17.044;2023-03-03T07:21:13;100822.69;;;0.99;48.81
70690;BME280;58267;51.156;17.044;2023-03-03T07:23:36;100831.22;;;0.51;49.45
70690;BME280;58267;51.156;17.044;2023-03-03T07:25:56;100829.80;;;1.08;48.40
70690;BME280;58267;51.156;17.044;2023-03-03T07:28:23;100827.68;;;0.62;48.90
70690;BME280;58267;51.156;17.044;2023-03-03T07:30:47;100820.57;;;1.42;47.86
70690;BME280;58267;51.156;17.044;2023-03-03T07:33:21;100817.94;;;1.32;47.77
70690;BME280;58267;51.156;17.044;2023-03-03T07:35:40;100816.06;;;0.90;48.10
70690;BME280;58267;51.156;17.044;2023-03-03T07:38:15;100814.81;;;0.90;48.44
70690;BME280;58267;51.156;17.044;2023-03-03T07:40:37;100808.78;;;1.47;47.06
70690;BME280;58267;51.156;17.044;2023-03-03T07:42:55;100812.61;;;1.33;47.30
70690;BME280;58267;51.156;17.044;2023-03-03T07:45:26;100807.66;;;-0.28;50.01
70690;BME280;58267;51.156;17.044;2023-03-03T07:47:45;100809.89;;;1.35;47.47
70690;BME280;58267;51.156;17.044;2023-03-03T07:50:14;100819.69;;;1.13;47.65
70690;BME280;58267;51.156;17.044;2023-03-03T07:52:39;100826.57;;;1.28;47.62
70690;BME280;58267;51.156;17.044;2023-03-03T07:57:35;100831.97;;;0.77;48.87
70690;BME280;58267;51.156;17.044;2023-03-03T07:59:57;100827.03;;;0.69;49.20
70690;BME280;58267;51.156;17.044;2023-03-03T08:04:47;100813.87;;;0.70;48.69
70690;BME280;58267;51.156;17.044;2023-03-03T08:07:12;100813.02;;;1.16;47.79
70690;BME280;58267;51.156;17.044;2023-03-03T08:09:38;100817.74;;;0.86;48.23
70690;BME280;58267;51.156;17.044;2023-03-03T08:12:14;100815.95;;;0.96;47.99
70690;BME280;58267;51.156;17.044;2023-03-03T08:14:28;100816.78;;;1.32;47.45
70690;BME280;58267;51.156;17.044;2023-03-03T08:16:52;100820.58;;;0.61;48.21
70690;BME280;58267;51.156;17.044;2023-03-03T08:19:17;100822.15;;;0.05;49.50
70690;BME280;58267;51.156;17.044;2023-03-03T08:21:42;100823.28;;;0.35;49.63
70690;BME280;58267;51.156;17.044;2023-03-03T08:24:08;100819.35;;;0.23;50.78
70690;BME280;58267;51.156;17.044;2023-03-03T08:26:33;100813.32;;;0.81;48.86
70690;BME280;58267;51.156;17.044;2023-03-03T08:28:59;100807.86;;;0.47;48.63
70690;BME280;58267;51.156;17.044;2023-03-03T08:31:25;100808.33;;;0.92;48.31
70690;BME280;58267;51.156;17.044;2023-03-03T08:33:51;100802.57;;;0.46;48.75
70690;BME280;58267;51.156;17.044;2023-03-03T08:36:16;100799.52;;;0.80;48.25
70690;BME280;58267;51.156;17.044;2023-03-03T08:38:42;100815.19;;;0.40;48.72
70690;BME280;58267;51.156;17.044;2023-03-03T08:41:08;100810.96;;;1.29;47.37
70690;BME280;58267;51.156;17.044;2023-03-03T08:43:33;100814.80;;;0.51;49.69
70690;BME280;58267;51.156;17.044;2023-03-03T08:46:00;100822.91;;;1.04;48.83
70690;BME280;58267;51.156;17.044;2023-03-03T08:48:25;100826.54;;;0.70;48.33
70690;BME280;58267;51.156;17.044;2023-03-03T08:50:50;100829.14;;;1.41;47.57
70690;BME280;58267;51.156;17.044;2023-03-03T08:53:17;100836.70;;;-0.30;50.36
70690;BME280;58267;51.156;17.044;2023-03-03T08:55:41;100834.83;;;0.88;49.19
70690;BME280;58267;51.156;17.044;2023-03-03T08:58:06;100833.15;;;0.60;49.64
70690;BME280;58267;51.156;17.044;2023-03-03T09:00:33;100840.90;;;0.31;49.17
70690;BME280;58267;51.156;17.044;2023-03-03T09:02:59;100842.13;;;0.88;48.48
70690;BME280;58267;51.156;17.044;2023-03-03T09:05:24;100838.04;;;0.83;48.53
70690;BME280;58267;51.156;17.044;2023-03-03T09:07:50;100838.78;;;1.23;47.69
70690;BME280;58267;51.156;17.044;2023-03-03T09:10:22;100837.53;;;2.18;45.93
70690;BME280;58267;51.156;17.044;2023-03-03T09:12:46;100847.04;;;1.17;46.99
70690;BME280;58267;51.156;17.044;2023-03-03T09:15:14;100845.80;;;1.46;47.16
70690;BME280;58267;51.156;17.044;2023-03-03T09:17:33;100850.01;;;0.11;49.74
70690;BME280;58267;51.156;17.044;2023-03-03T09:19:59;100847.96;;;0.87;48.60
70690;BME280;58267;51.156;17.044;2023-03-03T09:22:24;100847.53;;;1.15;48.17
70690;BME280;58267;51.156;17.044;2023-03-03T09:24:48;100848.95;;;1.51;47.74
70690;BME280;58267;51.156;17.044;2023-03-03T09:27:17;100860.25;;;0.06;50.09
70690;BME280;58267;51.156;17.044;2023-03-03T09:29:38;100854.26;;;0.06;50.51
70690;BME280;58267;51.156;17.044;2023-03-03T09:32:16;100861.49;;;1.41;47.94
70690;BME280;58267;51.156;17.044;2023-03-03T09:34:37;100860.50;;;1.45;47.19
70690;BME280;58267;51.156;17.044;2023-03-03T09:36:55;100857.36;;;1.47;47.87
70690;BME280;58267;51.156;17.044;2023-03-03T09:39:21;100857.21;;;1.36;47.85
70690;BME280;58267;51.156;17.044;2023-03-03T09:41:57;100854.10;;;1.97;46.20
70690;BME280;58267;51.156;17.044;2023-03-03T09:46:39;100856.68;;;1.97;45.83
70690;BME280;58267;51.156;17.044;2023-03-03T09:49:10;100858.15;;;1.97;45.43
70690;BME280;58267;51.156;17.044;2023-03-03T09:51:39;100859.15;;;2.43;44.98
70690;BME280;58267;51.156;17.044;2023-03-03T09:54:02;100859.38;;;1.79;45.65
70690;BME280;58267;51.156;17.044;2023-03-03T09:56:23;100862.05;;;1.90;45.79
70690;BME280;58267;51.156;17.044;2023-03-03T09:58:52;100871.86;;;0.98;47.91
70690;BME280;58267;51.156;17.044;2023-03-03T10:01:20;100872.32;;;0.71;48.40
70690;BME280;58267;51.156;17.044;2023-03-03T10:03:43;100870.46;;;0.25;49.18
70690;BME280;58267;51.156;17.044;2023-03-03T10:06:02;100867.79;;;1.46;47.35
70690;BME280;58267;51.156;17.044;2023-03-03T10:08:35;100863.05;;;1.61;46.76
70690;BME280;58267;51.156;17.044;2023-03-03T10:10:55;100866.76;;;0.83;47.92
70690;BME280;58267;51.156;17.044;2023-03-03T10:13:25;100866.90;;;1.48;46.85
70690;BME280;58267;51.156;17.044;2023-03-03T10:15:48;100859.11;;;1.70;46.53
70690;BME280;58267;51.156;17.044;2023-03-03T10:18:15;100856.20;;;2.14;45.86
70690;BME280;58267;51.156;17.044;2023-03-03T10:20:42;100859.66;;;2.63;45.32
70690;BME280;58267;51.156;17.044;2023-03-03T10:23:04;100856.94;;;1.43;46.20
70690;BME280;58267;51.156;17.044;2023-03-03T10:25:33;100858.00;;;1.82;46.16
70690;BME280;58267;51.156;17.044;2023-03-03T10:27:57;100863.07;;;1.31;47.47
70690;BME280;58267;51.156;17.044;2023-03-03T10:30:19;100862.26;;;1.87;47.24
70690;BME280;58267;51.156;17.044;2023-03-03T10:32:45;100853.96;;;2.09;46.10
70690;BME280;58267;51.156;17.044;2023-03-03T10:37:37;100854.41;;;1.72;46.24
70690;BME280;58267;51.156;17.044;2023-03-03T10:40:07;100850.06;;;2.11;46.21
70690;BME280;58267;51.156;17.044;2023-03-03T10:44:57;100854.78;;;1.71;46.91
70690;BME280;58267;51.156;17.044;2023-03-03T10:47:26;100853.71;;;1.92;46.69
70690;BME280;58267;51.156;17.044;2023-03-03T10:49:47;100857.69;;;2.14;46.06
70690;BME280;58267;51.156;17.044;2023-03-03T10:54:44;100854.35;;;1.84;46.31
70690;BME280;58267;51.156;17.044;2023-03-03T10:57:00;100853.76;;;1.65;46.59
70690;BME280;58267;51.156;17.044;2023-03-03T10:59:33;100853.76;;;0.81;48.16
70690;BME280;58267;51.156;17.044;2023-03-03T11:01:50;100844.70;;;1.45;47.22
70690;BME280;58267;51.156;17.044;2023-03-03T11:04:24;100832.98;;;2.00;46.60
70690;BME280;58267;51.156;17.044;2023-03-03T11:06:42;100826.40;;;1.63;46.85
70690;BME280;58267;51.156;17.044;2023-03-03T11:09:07;100824.97;;;1.88;46.11
70690;BME280;58267;51.156;17.044;2023-03-03T11:11:37;100822.56;;;2.58;45.36
70690;BME280;58267;51.156;17.044;2023-03-03T11:13:57;100819.60;;;1.67;46.51
70690;BME280;58267;51.156;17.044;2023-03-03T11:16:29;100819.31;;;2.72;44.86
70690;BME280;58267;51.156;17.044;2023-03-03T11:18:53;100817.11;;;2.24;44.66
70690;BME280;58267;51.156;17.044;2023-03-03T11:21:15;100816.77;;;2.70;44.72
70690;BME280;58267;51.156;17.044;2023-03-03T11:23:49;100822.12;;;2.12;44.89
70690;BME280;58267;51.156;17.044;2023-03-03T11:26:08;100819.94;;;1.94;45.58
70690;BME280;58267;51.156;17.044;2023-03-03T11:28:35;100818.61;;;3.07;44.21
70690;BME280;58267;51.156;17.044;2023-03-03T11:31:01;100816.88;;;3.07;44.12
70690;BME280;58267;51.156;17.044;2023-03-03T11:33:21;100810.00;;;1.77;45.98
70690;BME280;58267;51.156;17.044;2023-03-03T11:35:45;100808.69;;;1.91;45.69
70690;BME280;58267;51.156;17.044;2023-03-03T11:38:23;100809.57;;;2.38;45.17
70690;BME280;58267;51.156;17.044;2023-03-03T11:40:40;100813.78;;;2.03;46.16
70690;BME280;58267;51.156;17.044;2023-03-03T11:43:02;100812.04;;;2.01;46.08
70690;BME280;58267;51.156;17.044;2023-03-03T11:45:28;100813.33;;;1.64;46.98
70690;BME280;58267;51.156;17.044;2023-03-03T11:47:53;100822.92;;;0.94;48.87
70690;BME280;58267;51.156;17.044;2023-03-03T11:50:19;100819.59;;;0.08;49.93
70690;BME280;58267;51.156;17.044;2023-03-03T11:52:44;100819.17;;;0.51;49.76
70690;BME280;58267;51.156;17.044;2023-03-03T11:55:11;100807.05;;;1.29;47.90
70690;BME280;58267;51.156;17.044;2023-03-03T11:57:34;100813.71;;;2.01;46.73
70690;BME280;58267;51.156;17.044;2023-03-03T12:00:03;100823.13;;;0.38;49.79
70690;BME280;58267;51.156;17.044;2023-03-03T12:02:30;100815.45;;;0.54;49.78
70690;BME280;58267;51.156;17.044;2023-03-03T12:04:50;100815.68;;;1.01;48.82
70690;BME280;58267;51.156;17.044;2023-03-03T12:07:22;100812.95;;;1.03;48.27
70690;BME280;58267;51.156;17.044;2023-03-03T12:09:45;100816.38;;;0.71;49.07
70690;BME280;58267;51.156;17.044;2023-03-03T12:12:05;100802.20;;;1.34;47.91
70690;BME280;58267;51.156;17.044;2023-03-03T12:14:39;100802.02;;;2.01;47.08
70690;BME280;58267;51.156;17.044;2023-03-03T12:16:55;100796.13;;;1.44;47.16
70690;BME280;58267;51.156;17.044;2023-03-03T12:19:27;100792.80;;;1.79;46.65
70690;BME280;58267;51.156;17.044;2023-03-03T12:21:56;100793.66;;;2.04;46.11
70690;BME280;58267;51.156;17.044;2023-03-03T12:26:43;100802.33;;;0.86;48.83
70690;BME280;58267;51.156;17.044;2023-03-03T12:29:06;100802.77;;;0.84;48.60
70690;BME280;58267;51.156;17.044;2023-03-03T12:31:38;100796.63;;;0.59;49.42
70690;BME280;58267;51.156;17.044;2023-03-03T12:33:54;100797.35;;;0.95;48.47
70690;BME280;58267;51.156;17.044;2023-03-03T12:36:27;100788.83;;;1.42;48.24
70690;BME280;58267;51.156;17.044;2023-03-03T12:38:47;100789.91;;;1.72;46.64
70690;BME280;58267;51.156;17.044;2023-03-03T12:41:14;100786.70;;;1.89;46.60
70690;BME280;58267;51.156;17.044;2023-03-03T12:43:41;100791.26;;;1.56;46.85
70690;BME280;58267;51.156;17.044;2023-03-03T12:46:05;100788.72;;;2.31;45.48
70690;BME280;58267;51.156;17.044;2023-03-03T12:48:30;100792.04;;;2.12;45.42
70690;BME280;58267;51.156;17.044;2023-03-03T12:50:56;100785.25;;;1.14;47.62
70690;BME280;58267;51.156;17.044;2023-03-03T12:53:24;100788.40;;;1.54;47.72
70690;BME280;58267;51.156;17.044;2023-03-03T12:55:48;100786.08;;;0.73;48.94
70690;BME280;58267;51.156;17.044;2023-03-03T12:58:10;100782.15;;;1.52;47.82
70690;BME280;58267;51.156;17.044;2023-03-03T13:00:40;100779.32;;;2.30;46.08
70690;BME280;58267;51.156;17.044;2023-03-03T13:03:01;100775.35;;;1.86;46.66